sensor_id;sensor_type;location;lat;lon;timestamp;P1;durP1;ratioP1;P2;durP2;ratioP2
16025;SDS011;8117;52.488;13.460;2023-01-30T00:22:27;3.50;;;1.77;;
16025;SDS011;8117;52.488;13.460;2023-01-30T00:25:13;1.83;;;1.70;;
16025;SDS011;8117;52.488;13.460;2023-01-30T00:27:43;3.20;;;1.80;;
16025;SDS011;8117;52.488;13.460;2023-01-30T00:30:27;3.70;;;2.23;;
16025;SDS011;8117;52.488;13.460;2023-01-30T00:33:09;2.80;;;2.10;;
16025;SDS011;8117;52.488;13.460;2023-01-30T00:36:07;2.90;;;2.30;;
16025;SDS011;8117;52.488;13.460;2023-01-30T00:39:08;4.40;;;1.83;;
16025;SDS011;8117;52.488;13.460;2023-01-30T00:41:37;2.37;;;2.20;;
16025;SDS011;8117;52.488;13.460;2023-01-30T00:44:20;2.13;;;1.50;;
16025;SDS011;8117;52.488;13.460;2023-01-30T00:47:07;2.33;;;2.03;;
16025;SDS011;8117;52.488;13.460;2023-01-30T00:49:43;2.47;;;1.97;;
16025;SDS011;8117;52.488;13.460;2023-01-30T00:52:42;3.40;;;0.93;;
16025;SDS011;8117;52.488;13.460;2023-01-30T01:01:39;2.47;;;1.90;;
16025;SDS011;8117;52.488;13.460;2023-01-30T01:31:41;5.70;;;2.90;;
16025;SDS011;8117;52.488;13.460;2023-01-30T01:33:26;6.43;;;3.10;;
16025;SDS011;8117;52.488;13.460;2023-01-30T01:43:08;4.33;;;2.97;;
16025;SDS011;8117;52.488;13.460;2023-01-30T01:45:41;2.87;;;2.17;;
16025;SDS011;8117;52.488;13.460;2023-01-30T01:48:11;3.47;;;2.07;;
16025;SDS011;8117;52.488;13.460;2023-01-30T01:50:43;4.17;;;3.13;;
16025;SDS011;8117;52.488;13.460;2023-01-30T01:53:18;3.53;;;2.83;;
16025;SDS011;8117;52.488;13.460;2023-01-30T01:55:59;1.23;;;1.13;;
16025;SDS011;8117;52.488;13.460;2023-01-30T01:58:56;1.90;;;1.80;;
16025;SDS011;8117;52.488;13.460;2023-01-30T02:01:25;2.33;;;1.93;;
16025;SDS011;8117;52.488;13.460;2023-01-30T02:03:57;3.10;;;2.33;;
16025;SDS011;8117;52.488;13.460;2023-01-30T02:06:31;6.10;;;2.60;;
16025;SDS011;8117;52.488;13.460;2023-01-30T02:09:08;2.03;;;1.70;;
16025;SDS011;8117;52.488;13.460;2023-01-30T02:14:47;2.07;;;1.90;;
16025;SDS011;8117;52.488;13.460;2023-01-30T02:17:21;3.33;;;2.93;;
16025;SDS011;8117;52.488;13.460;2023-01-30T02:20:01;1.00;;;0.90;;
16025;SDS011;8117;52.488;13.460;2023-01-30T02:26:02;2.00;;;1.87;;
16025;SDS011;8117;52.488;13.460;2023-01-30T02:32:19;2.97;;;1.83;;
16025;SDS011;8117;52.488;13.460;2023-01-30T02:34:54;2.23;;;2.13;;
16025;SDS011;8117;52.488;13.460;2023-01-30T02:37:53;2.83;;;2.37;;
16025;SDS011;8117;52.488;13.460;2023-01-30T02:40:59;1.67;;;1.57;;
16025;SDS011;8117;52.488;13.460;2023-01-30T02:43:44;3.07;;;1.93;;
16025;SDS011;8117;52.488;13.460;2023-01-30T02:46:20;3.57;;;2.00;;
16025;SDS011;8117;52.488;13.460;2023-01-30T02:48:58;4.20;;;2.10;;
16025;SDS011;8117;52.488;13.460;2023-01-30T02:51:33;2.37;;;1.93;;
16025;SDS011;8117;52.488;13.460;2023-01-30T02:54:03;1.67;;;1.57;;
16025;SDS011;8117;52.488;13.460;2023-01-30T02:56:43;3.93;;;3.10;;
16025;SDS011;8117;52.488;13.460;2023-01-30T02:59:11;4.67;;;2.87;;
16025;SDS011;8117;52.488;13.460;2023-01-30T03:04:52;3.43;;;2.10;;
16025;SDS011;8117;52.488;13.460;2023-01-30T03:07:29;1.77;;;1.13;;
16025;SDS011;8117;52.488;13.460;2023-01-30T03:10:04;2.57;;;1.27;;
16025;SDS011;8117;52.488;13.460;2023-01-30T03:12:36;2.10;;;2.00;;
16025;SDS011;8117;52.488;13.460;2023-01-30T03:15:09;2.23;;;1.50;;
16025;SDS011;8117;52.488;13.460;2023-01-30T03:17:41;4.13;;;2.57;;
16025;SDS011;8117;52.488;13.460;2023-01-30T03:20:11;2.33;;;1.87;;
16025;SDS011;8117;52.488;13.460;2023-01-30T03:22:41;2.63;;;1.90;;
16025;SDS011;8117;52.488;13.460;2023-01-30T03:25:08;2.30;;;1.83;;
16025;SDS011;8117;52.488;13.460;2023-01-30T03:27:36;1.53;;;1.43;;
16025;SDS011;8117;52.488;13.460;2023-01-30T03:30:06;2.80;;;2.40;;
16025;SDS011;8117;52.488;13.460;2023-01-30T03:32:33;5.87;;;3.70;;
16025;SDS011;8117;52.488;13.460;2023-01-30T03:35:00;3.63;;;3.20;;
16025;SDS011;8117;52.488;13.460;2023-01-30T03:37:29;0.70;;;0.70;;
16025;SDS011;8117;52.488;13.460;2023-01-30T03:39:56;3.83;;;2.10;;
16025;SDS011;8117;52.488;13.460;2023-01-30T03:42:28;1.87;;;1.77;;
16025;SDS011;8117;52.488;13.460;2023-01-30T03:44:56;3.53;;;2.90;;
16025;SDS011;8117;52.488;13.460;2023-01-30T03:47:23;6.27;;;2.90;;
16025;SDS011;8117;52.488;13.460;2023-01-30T03:49:50;6.80;;;2.60;;
16025;SDS011;8117;52.488;13.460;2023-01-30T03:52:24;4.40;;;2.23;;
16025;SDS011;8117;52.488;13.460;2023-01-30T03:54:57;4.73;;;3.07;;
16025;SDS011;8117;52.488;13.460;2023-01-30T03:57:24;7.23;;;2.50;;
16025;SDS011;8117;52.488;13.460;2023-01-30T03:59:51;2.70;;;1.50;;
16025;SDS011;8117;52.488;13.460;2023-01-30T04:02:19;5.47;;;2.17;;
16025;SDS011;8117;52.488;13.460;2023-01-30T04:04:50;2.83;;;2.40;;
16025;SDS011;8117;52.488;13.460;2023-01-30T04:07:19;4.03;;;2.73;;
16025;SDS011;8117;52.488;13.460;2023-01-30T04:09:49;3.60;;;2.27;;
16025;SDS011;8117;52.488;13.460;2023-01-30T04:12:21;1.40;;;1.13;;
16025;SDS011;8117;52.488;13.460;2023-01-30T04:14:48;7.30;;;2.80;;
16025;SDS011;8117;52.488;13.460;2023-01-30T04:17:18;3.37;;;1.83;;
16025;SDS011;8117;52.488;13.460;2023-01-30T04:19:50;2.87;;;1.83;;
16025;SDS011;8117;52.488;13.460;2023-01-30T04:22:19;7.10;;;3.33;;
16025;SDS011;8117;52.488;13.460;2023-01-30T04:24:49;3.80;;;3.50;;
16025;SDS011;8117;52.488;13.460;2023-01-30T04:27:18;2.80;;;2.60;;
16025;SDS011;8117;52.488;13.460;2023-01-30T04:29:48;1.10;;;0.70;;
16025;SDS011;8117;52.488;13.460;2023-01-30T04:32:15;2.20;;;2.00;;
16025;SDS011;8117;52.488;13.460;2023-01-30T04:34:44;3.37;;;1.57;;
16025;SDS011;8117;52.488;13.460;2023-01-30T04:37:11;4.27;;;2.67;;
16025;SDS011;8117;52.488;13.460;2023-01-30T04:39:38;5.47;;;3.17;;
16025;SDS011;8117;52.488;13.460;2023-01-30T04:42:07;5.10;;;2.97;;
16025;SDS011;8117;52.488;13.460;2023-01-30T04:44:33;3.03;;;2.03;;
16025;SDS011;8117;52.488;13.460;2023-01-30T04:47:11;3.00;;;2.80;;
16025;SDS011;8117;52.488;13.460;2023-01-30T04:49:41;2.87;;;1.77;;
16025;SDS011;8117;52.488;13.460;2023-01-30T04:52:09;2.60;;;1.63;;
16025;SDS011;8117;52.488;13.460;2023-01-30T04:54:38;5.83;;;3.20;;
16025;SDS011;8117;52.488;13.460;2023-01-30T04:57:06;3.17;;;2.83;;
16025;SDS011;8117;52.488;13.460;2023-01-30T04:59:35;1.83;;;1.73;;
16025;SDS011;8117;52.488;13.460;2023-01-30T05:02:10;2.07;;;1.73;;
16025;SDS011;8117;52.488;13.460;2023-01-30T05:04:37;1.47;;;1.37;;
16025;SDS011;8117;52.488;13.460;2023-01-30T05:07:05;4.70;;;1.93;;
16025;SDS011;8117;52.488;13.460;2023-01-30T05:09:33;4.00;;;2.73;;
16025;SDS011;8117;52.488;13.460;2023-01-30T05:12:02;5.63;;;2.53;;
16025;SDS011;8117;52.488;13.460;2023-01-30T05:14:29;5.83;;;2.50;;
16025;SDS011;8117;52.488;13.460;2023-01-30T05:16:56;3.63;;;3.33;;
16025;SDS011;8117;52.488;13.460;2023-01-30T05:19:28;1.93;;;1.63;;
16025;SDS011;8117;52.488;13.460;2023-01-30T05:21:55;6.77;;;2.67;;
16025;SDS011;8117;52.488;13.460;2023-01-30T05:24:22;1.90;;;1.73;;
16025;SDS011;8117;52.488;13.460;2023-01-30T05:26:49;2.43;;;2.23;;
16025;SDS011;8117;52.488;13.460;2023-01-30T05:29:26;5.47;;;1.83;;
16025;SDS011;8117;52.488;13.460;2023-01-30T05:31:58;3.50;;;1.47;;
16025;SDS011;8117;52.488;13.460;2023-01-30T05:34:30;2.40;;;2.00;;
16025;SDS011;8117;52.488;13.460;2023-01-30T05:39:44;2.13;;;1.67;;
16025;SDS011;8117;52.488;13.460;2023-01-30T05:42:13;3.13;;;2.83;;
16025;SDS011;8117;52.488;13.460;2023-01-30T05:44:40;1.07;;;0.80;;
16025;SDS011;8117;52.488;13.460;2023-01-30T05:47:07;5.67;;;3.43;;
16025;SDS011;8117;52.488;13.460;2023-01-30T05:49:35;7.07;;;3.03;;
16025;SDS011;8117;52.488;13.460;2023-01-30T05:52:05;1.63;;;1.50;;
16025;SDS011;8117;52.488;13.460;2023-01-30T05:54:33;0.70;;;0.70;;
16025;SDS011;8117;52.488;13.460;2023-01-30T05:57:13;3.23;;;2.27;;
16025;SDS011;8117;52.488;13.460;2023-01-30T05:59:42;4.17;;;2.13;;
16025;SDS011;8117;52.488;13.460;2023-01-30T06:02:11;1.63;;;1.37;;
16025;SDS011;8117;52.488;13.460;2023-01-30T06:08:03;4.23;;;2.77;;
16025;SDS011;8117;52.488;13.460;2023-01-30T06:10:32;3.77;;;3.17;;
16025;SDS011;8117;52.488;13.460;2023-01-30T06:12:59;5.07;;;2.57;;
16025;SDS011;8117;52.488;13.460;2023-01-30T06:15:26;6.27;;;2.33;;
16025;SDS011;8117;52.488;13.460;2023-01-30T06:17:53;2.67;;;2.47;;
16025;SDS011;8117;52.488;13.460;2023-01-30T06:20:20;4.53;;;2.83;;
16025;SDS011;8117;52.488;13.460;2023-01-30T06:26:03;1.23;;;1.17;;
16025;SDS011;8117;52.488;13.460;2023-01-30T06:31:53;4.57;;;2.73;;
16025;SDS011;8117;52.488;13.460;2023-01-30T06:35:11;4.03;;;2.33;;
16025;SDS011;8117;52.488;13.460;2023-01-30T06:38:04;2.73;;;2.00;;
16025;SDS011;8117;52.488;13.460;2023-01-30T07:01:04;4.60;;;2.53;;
16025;SDS011;8117;52.488;13.460;2023-01-30T07:03:46;2.03;;;1.33;;
16025;SDS011;8117;52.488;13.460;2023-01-30T07:07:51;3.73;;;3.47;;
16025;SDS011;8117;52.488;13.460;2023-01-30T07:09:41;6.80;;;1.97;;
16025;SDS011;8117;52.488;13.460;2023-01-30T07:12:08;1.63;;;1.53;;
16025;SDS011;8117;52.488;13.460;2023-01-30T07:14:51;3.00;;;1.90;;
16025;SDS011;8117;52.488;13.460;2023-01-30T07:17:19;2.57;;;1.53;;
16025;SDS011;8117;52.488;13.460;2023-01-30T07:19:46;2.57;;;2.30;;
16025;SDS011;8117;52.488;13.460;2023-01-30T07:22:14;1.77;;;1.23;;
16025;SDS011;8117;52.488;13.460;2023-01-30T07:25:01;1.70;;;1.60;;
16025;SDS011;8117;52.488;13.460;2023-01-30T07:27:28;3.00;;;1.80;;
16025;SDS011;8117;52.488;13.460;2023-01-30T07:29:58;2.43;;;1.80;;
16025;SDS011;8117;52.488;13.460;2023-01-30T07:32:30;5.03;;;2.87;;
16025;SDS011;8117;52.488;13.460;2023-01-30T07:34:59;2.20;;;1.87;;
16025;SDS011;8117;52.488;13.460;2023-01-30T07:37:26;8.47;;;3.93;;
16025;SDS011;8117;52.488;13.460;2023-01-30T07:39:54;6.03;;;4.13;;
16025;SDS011;8117;52.488;13.460;2023-01-30T07:42:21;8.17;;;4.20;;
16025;SDS011;8117;52.488;13.460;2023-01-30T07:44:53;7.17;;;3.73;;
16025;SDS011;8117;52.488;13.460;2023-01-30T07:47:25;9.17;;;2.93;;
16025;SDS011;8117;52.488;13.460;2023-01-30T07:49:55;2.17;;;1.97;;
16025;SDS011;8117;52.488;13.460;2023-01-30T07:52:22;1.80;;;1.67;;
16025;SDS011;8117;52.488;13.460;2023-01-30T07:54:51;0.97;;;0.97;;
16025;SDS011;8117;52.488;13.460;2023-01-30T07:57:18;1.67;;;1.57;;
16025;SDS011;8117;52.488;13.460;2023-01-30T07:59:46;1.60;;;1.50;;
16025;SDS011;8117;52.488;13.460;2023-01-30T08:02:15;2.30;;;1.70;;
16025;SDS011;8117;52.488;13.460;2023-01-30T08:04:58;3.43;;;1.40;;
16025;SDS011;8117;52.488;13.460;2023-01-30T08:07:28;1.57;;;1.47;;
16025;SDS011;8117;52.488;13.460;2023-01-30T08:09:55;1.13;;;1.07;;
16025;SDS011;8117;52.488;13.460;2023-01-30T08:12:22;4.83;;;1.43;;
16025;SDS011;8117;52.488;13.460;2023-01-30T08:14:49;0.97;;;0.97;;
16025;SDS011;8117;52.488;13.460;2023-01-30T08:17:15;1.00;;;0.87;;
16025;SDS011;8117;52.488;13.460;2023-01-30T08:19:42;0.10;;;0.10;;
16025;SDS011;8117;52.488;13.460;2023-01-30T08:22:14;2.47;;;1.60;;
16025;SDS011;8117;52.488;13.460;2023-01-30T08:24:41;1.27;;;1.07;;
16025;SDS011;8117;52.488;13.460;2023-01-30T08:27:11;0.83;;;0.70;;
16025;SDS011;8117;52.488;13.460;2023-01-30T08:29:37;1.20;;;1.10;;
16025;SDS011;8117;52.488;13.460;2023-01-30T08:32:08;1.03;;;0.63;;
16025;SDS011;8117;52.488;13.460;2023-01-30T08:34:35;2.00;;;0.60;;
16025;SDS011;8117;52.488;13.460;2023-01-30T08:37:02;0.40;;;0.40;;
16025;SDS011;8117;52.488;13.460;2023-01-30T08:39:32;1.87;;;0.67;;
16025;SDS011;8117;52.488;13.460;2023-01-30T08:42:00;0.87;;;0.87;;
16025;SDS011;8117;52.488;13.460;2023-01-30T08:44:27;3.13;;;1.53;;
16025;SDS011;8117;52.488;13.460;2023-01-30T08:46:58;0.63;;;0.63;;
16025;SDS011;8117;52.488;13.460;2023-01-30T08:49:31;1.80;;;0.80;;
16025;SDS011;8117;52.488;13.460;2023-01-30T08:52:03;1.40;;;1.30;;
16025;SDS011;8117;52.488;13.460;2023-01-30T08:54:30;0.10;;;0.10;;
16025;SDS011;8117;52.488;13.460;2023-01-30T08:56:58;3.93;;;1.87;;
16025;SDS011;8117;52.488;13.460;2023-01-30T08:59:25;0.53;;;0.53;;
16025;SDS011;8117;52.488;13.460;2023-01-30T09:01:56;0.90;;;0.33;;
16025;SDS011;8117;52.488;13.460;2023-01-30T09:04:33;3.90;;;0.70;;
16025;SDS011;8117;52.488;13.460;2023-01-30T09:07:07;1.60;;;0.57;;
16025;SDS011;8117;52.488;13.460;2023-01-30T09:09:42;0.73;;;0.60;;
16025;SDS011;8117;52.488;13.460;2023-01-30T09:12:11;1.97;;;0.60;;
16025;SDS011;8117;52.488;13.460;2023-01-30T09:14:38;1.00;;;0.93;;
16025;SDS011;8117;52.488;13.460;2023-01-30T09:17:04;0.73;;;0.73;;
16025;SDS011;8117;52.488;13.460;2023-01-30T09:19:31;1.03;;;0.77;;
16025;SDS011;8117;52.488;13.460;2023-01-30T09:22:04;0.40;;;0.40;;
16025;SDS011;8117;52.488;13.460;2023-01-30T09:24:32;1.03;;;0.73;;
16025;SDS011;8117;52.488;13.460;2023-01-30T09:27:07;0.83;;;0.40;;
16025;SDS011;8117;52.488;13.460;2023-01-30T09:29:35;0.13;;;0.13;;
16025;SDS011;8117;52.488;13.460;2023-01-30T09:32:03;0.40;;;0.40;;
16025;SDS011;8117;52.488;13.460;2023-01-30T09:34:32;0.30;;;0.30;;
16025;SDS011;8117;52.488;13.460;2023-01-30T09:37:06;0.67;;;0.67;;
16025;SDS011;8117;52.488;13.460;2023-01-30T09:39:33;1.17;;;1.07;;
16025;SDS011;8117;52.488;13.460;2023-01-30T09:42:06;0.80;;;0.80;;
16025;SDS011;8117;52.488;13.460;2023-01-30T09:44:56;0.60;;;0.30;;
16025;SDS011;8117;52.488;13.460;2023-01-30T09:47:31;0.63;;;0.63;;
16025;SDS011;8117;52.488;13.460;2023-01-30T09:50:10;0.40;;;0.40;;
16025;SDS011;8117;52.488;13.460;2023-01-30T09:52:45;1.70;;;0.67;;
16025;SDS011;8117;52.488;13.460;2023-01-30T09:55:19;0.80;;;0.80;;
16025;SDS011;8117;52.488;13.460;2023-01-30T09:57:47;1.70;;;1.60;;
16025;SDS011;8117;52.488;13.460;2023-01-30T10:00:18;1.23;;;0.87;;
16025;SDS011;8117;52.488;13.460;2023-01-30T10:02:49;0.67;;;0.67;;
16025;SDS011;8117;52.488;13.460;2023-01-30T10:05:18;0.80;;;0.80;;
16025;SDS011;8117;52.488;13.460;2023-01-30T10:07:51;0.30;;;0.30;;
16025;SDS011;8117;52.488;13.460;2023-01-30T10:10:29;0.97;;;0.63;;
16025;SDS011;8117;52.488;13.460;2023-01-30T10:13:03;1.23;;;0.73;;
16025;SDS011;8117;52.488;13.460;2023-01-30T10:15:40;0.30;;;0.30;;
16025;SDS011;8117;52.488;13.460;2023-01-30T10:18:31;0.50;;;0.50;;
16025;SDS011;8117;52.488;13.460;2023-01-30T10:21:19;0.93;;;0.80;;
16025;SDS011;8117;52.488;13.460;2023-01-30T10:23:59;0.90;;;0.87;;
16025;SDS011;8117;52.488;13.460;2023-01-30T10:26:36;0.43;;;0.40;;
16025;SDS011;8117;52.488;13.460;2023-01-30T10:29:09;0.30;;;0.30;;
16025;SDS011;8117;52.488;13.460;2023-01-30T10:32:04;0.40;;;0.40;;
16025;SDS011;8117;52.488;13.460;2023-01-30T10:34:37;2.13;;;1.13;;
16025;SDS011;8117;52.488;13.460;2023-01-30T10:37:16;2.77;;;0.40;;
16025;SDS011;8117;52.488;13.460;2023-01-30T10:39:46;2.83;;;0.67;;
16025;SDS011;8117;52.488;13.460;2023-01-30T10:42:17;2.50;;;0.70;;
16025;SDS011;8117;52.488;13.460;2023-01-30T10:44:50;0.30;;;0.30;;
16025;SDS011;8117;52.488;13.460;2023-01-30T10:47:26;0.70;;;0.70;;
16025;SDS011;8117;52.488;13.460;2023-01-30T10:50:09;0.87;;;0.30;;
16025;SDS011;8117;52.488;13.460;2023-01-30T10:52:41;0.17;;;0.17;;
16025;SDS011;8117;52.488;13.460;2023-01-30T10:55:14;0.97;;;0.77;;
16025;SDS011;8117;52.488;13.460;2023-01-30T10:57:49;0.53;;;0.20;;
16025;SDS011;8117;52.488;13.460;2023-01-30T11:00:21;0.60;;;0.60;;
16025;SDS011;8117;52.488;13.460;2023-01-30T11:03:14;0.83;;;0.83;;
16025;SDS011;8117;52.488;13.460;2023-01-30T11:05:46;0.40;;;0.40;;
16025;SDS011;8117;52.488;13.460;2023-01-30T11:08:35;0.27;;;0.27;;
16025;SDS011;8117;52.488;13.460;2023-01-30T11:11:19;0.30;;;0.30;;
16025;SDS011;8117;52.488;13.460;2023-01-30T11:14:03;2.53;;;0.43;;
16025;SDS011;8117;52.488;13.460;2023-01-30T11:16:50;0.10;;;0.10;;
16025;SDS011;8117;52.488;13.460;2023-01-30T11:19:22;3.30;;;0.50;;
16025;SDS011;8117;52.488;13.460;2023-01-30T11:21:53;1.60;;;1.03;;
16025;SDS011;8117;52.488;13.460;2023-01-30T11:24:40;0.10;;;0.10;;
16025;SDS011;8117;52.488;13.460;2023-01-30T11:27:15;1.10;;;0.37;;
16025;SDS011;8117;52.488;13.460;2023-01-30T11:29:49;1.00;;;0.97;;
16025;SDS011;8117;52.488;13.460;2023-01-30T11:32:28;3.30;;;0.30;;
16025;SDS011;8117;52.488;13.460;2023-01-30T11:35:10;0.60;;;0.60;;
16025;SDS011;8117;52.488;13.460;2023-01-30T11:37:47;0.23;;;0.23;;
16025;SDS011;8117;52.488;13.460;2023-01-30T11:40:18;0.30;;;0.20;;
16025;SDS011;8117;52.488;13.460;2023-01-30T11:42:50;1.27;;;0.57;;
16025;SDS011;8117;52.488;13.460;2023-01-30T11:45:19;0.20;;;0.20;;
16025;SDS011;8117;52.488;13.460;2023-01-30T11:47:52;1.40;;;1.20;;
16025;SDS011;8117;52.488;13.460;2023-01-30T11:50:23;0.40;;;0.40;;
16025;SDS011;8117;52.488;13.460;2023-01-30T11:53:02;6.60;;;0.60;;
16025;SDS011;8117;52.488;13.460;2023-01-30T11:55:42;0.10;;;0.10;;
16025;SDS011;8117;52.488;13.460;2023-01-30T11:58:17;2.37;;;2.17;;
16025;SDS011;8117;52.488;13.460;2023-01-30T12:00:51;7.93;;;1.03;;
16025;SDS011;8117;52.488;13.460;2023-01-30T12:03:29;6.90;;;0.93;;
16025;SDS011;8117;52.488;13.460;2023-01-30T12:06:14;0.90;;;0.67;;
16025;SDS011;8117;52.488;13.460;2023-01-30T12:08:58;0.20;;;0.20;;
16025;SDS011;8117;52.488;13.460;2023-01-30T12:15:34;3.70;;;0.40;;
16025;SDS011;8117;52.488;13.460;2023-01-30T12:18:09;0.10;;;0.10;;
16025;SDS011;8117;52.488;13.460;2023-01-30T12:21:17;0.20;;;0.20;;
16025;SDS011;8117;52.488;13.460;2023-01-30T12:23:46;0.00;;;0.00;;
16025;SDS011;8117;52.488;13.460;2023-01-30T12:26:20;0.83;;;0.80;;
16025;SDS011;8117;52.488;13.460;2023-01-30T12:28:54;0.20;;;0.20;;
16025;SDS011;8117;52.488;13.460;2023-01-30T12:31:31;0.73;;;0.40;;
16025;SDS011;8117;52.488;13.460;2023-01-30T12:34:00;0.53;;;0.53;;
16025;SDS011;8117;52.488;13.460;2023-01-30T12:36:33;4.03;;;0.57;;
16025;SDS011;8117;52.488;13.460;2023-01-30T12:39:19;8.03;;;0.70;;
16025;SDS011;8117;52.488;13.460;2023-01-30T12:42:00;2.37;;;0.77;;
16025;SDS011;8117;52.488;13.460;2023-01-30T12:44:54;0.47;;;0.27;;
16025;SDS011;8117;52.488;13.460;2023-01-30T12:47:45;0.33;;;0.33;;
16025;SDS011;8117;52.488;13.460;2023-01-30T12:50:23;0.73;;;0.73;;
16025;SDS011;8117;52.488;13.460;2023-01-30T12:55:49;6.73;;;1.67;;
16025;SDS011;8117;52.488;13.460;2023-01-30T12:58:23;1.03;;;0.40;;
16025;SDS011;8117;52.488;13.460;2023-01-30T13:01:04;0.33;;;0.33;;
16025;SDS011;8117;52.488;13.460;2023-01-30T13:03:39;1.93;;;0.63;;
16025;SDS011;8117;52.488;13.460;2023-01-30T13:06:15;3.50;;;0.80;;
16025;SDS011;8117;52.488;13.460;2023-01-30T13:08:56;7.57;;;0.37;;
16025;SDS011;8117;52.488;13.460;2023-01-30T13:11:39;2.33;;;0.37;;
16025;SDS011;8117;52.488;13.460;2023-01-30T13:14:13;2.10;;;0.73;;
16025;SDS011;8117;52.488;13.460;2023-01-30T13:16:55;0.60;;;0.60;;
16025;SDS011;8117;52.488;13.460;2023-01-30T13:19:30;1.40;;;0.67;;
16025;SDS011;8117;52.488;13.460;2023-01-30T13:22:02;0.40;;;0.40;;
16025;SDS011;8117;52.488;13.460;2023-01-30T13:24:34;8.90;;;0.80;;
16025;SDS011;8117;52.488;13.460;2023-01-30T13:27:11;0.20;;;0.20;;
16025;SDS011;8117;52.488;13.460;2023-01-30T13:29:40;0.27;;;0.20;;
16025;SDS011;8117;52.488;13.460;2023-01-30T13:32:10;1.40;;;0.17;;
16025;SDS011;8117;52.488;13.460;2023-01-30T13:34:42;1.37;;;0.57;;
16025;SDS011;8117;52.488;13.460;2023-01-30T13:37:12;0.40;;;0.40;;
16025;SDS011;8117;52.488;13.460;2023-01-30T13:39:42;2.60;;;1.47;;
16025;SDS011;8117;52.488;13.460;2023-01-30T13:42:15;0.20;;;0.20;;
16025;SDS011;8117;52.488;13.460;2023-01-30T13:44:50;1.40;;;0.43;;
16025;SDS011;8117;52.488;13.460;2023-01-30T13:47:21;0.20;;;0.20;;
16025;SDS011;8117;52.488;13.460;2023-01-30T13:50:00;1.70;;;0.57;;
16025;SDS011;8117;52.488;13.460;2023-01-30T13:52:36;0.20;;;0.20;;
16025;SDS011;8117;52.488;13.460;2023-01-30T13:55:12;1.10;;;0.60;;
16025;SDS011;8117;52.488;13.460;2023-01-30T13:57:43;0.77;;;0.77;;
16025;SDS011;8117;52.488;13.460;2023-01-30T14:00:18;0.30;;;0.30;;
16025;SDS011;8117;52.488;13.460;2023-01-30T14:05:57;0.40;;;0.40;;
16025;SDS011;8117;52.488;13.460;2023-01-30T14:08:47;3.77;;;1.33;;
16025;SDS011;8117;52.488;13.460;2023-01-30T14:11:26;0.67;;;0.20;;
16025;SDS011;8117;52.488;13.460;2023-01-30T14:13:57;1.50;;;0.67;;
16025;SDS011;8117;52.488;13.460;2023-01-30T14:16:40;0.10;;;0.10;;
16025;SDS011;8117;52.488;13.460;2023-01-30T14:22:19;0.47;;;0.47;;
16025;SDS011;8117;52.488;13.460;2023-01-30T14:37:13;0.10;;;0.10;;
16025;SDS011;8117;52.488;13.460;2023-01-30T14:40:27;1.30;;;1.30;;
16025;SDS011;8117;52.488;13.460;2023-01-30T14:46:02;0.20;;;0.20;;
16025;SDS011;8117;52.488;13.460;2023-01-30T14:48:51;0.23;;;0.23;;
16025;SDS011;8117;52.488;13.460;2023-01-30T14:51:21;0.00;;;0.00;;
16025;SDS011;8117;52.488;13.460;2023-01-30T14:53:52;2.77;;;1.13;;
16025;SDS011;8117;52.488;13.460;2023-01-30T14:56:35;0.00;;;0.00;;
16025;SDS011;8117;52.488;13.460;2023-01-30T15:02:17;0.37;;;0.37;;
16025;SDS011;8117;52.488;13.460;2023-01-30T15:04:53;0.00;;;0.00;;
16025;SDS011;8117;52.488;13.460;2023-01-30T15:07:52;0.00;;;0.00;;
16025;SDS011;8117;52.488;13.460;2023-01-30T15:10:28;0.00;;;0.00;;
16025;SDS011;8117;52.488;13.460;2023-01-30T15:23:22;0.00;;;0.00;;
16025;SDS011;8117;52.488;13.460;2023-01-30T15:26:11;0.10;;;0.10;;
16025;SDS011;8117;52.488;13.460;2023-01-30T15:28:50;0.00;;;0.00;;
16025;SDS011;8117;52.488;13.460;2023-01-30T15:31:22;0.00;;;0.00;;
16025;SDS011;8117;52.488;13.460;2023-01-30T15:33:54;0.30;;;0.30;;
16025;SDS011;8117;52.488;13.460;2023-01-30T15:36:45;0.00;;;0.00;;
16025;SDS011;8117;52.488;13.460;2023-01-30T15:39:17;0.10;;;0.10;;
16025;SDS011;8117;52.488;13.460;2023-01-30T15:41:48;2.33;;;0.93;;
16025;SDS011;8117;52.488;13.460;2023-01-30T15:44:35;0.57;;;0.40;;
16025;SDS011;8117;52.488;13.460;2023-01-30T15:50:11;0.53;;;0.53;;
16025;SDS011;8117;52.488;13.460;2023-01-30T15:52:41;0.10;;;0.10;;
16025;SDS011;8117;52.488;13.460;2023-01-30T15:55:15;0.10;;;0.10;;
16025;SDS011;8117;52.488;13.460;2023-01-30T15:57:44;0.10;;;0.10;;
16025;SDS011;8117;52.488;13.460;2023-01-30T16:00:18;0.20;;;0.20;;
16025;SDS011;8117;52.488;13.460;2023-01-30T16:02:50;0.00;;;0.00;;
16025;SDS011;8117;52.488;13.460;2023-01-30T16:05:18;0.43;;;0.43;;
16025;SDS011;8117;52.488;13.460;2023-01-30T16:07:49;0.10;;;0.10;;
16025;SDS011;8117;52.488;13.460;2023-01-30T16:10:18;0.00;;;0.00;;
16025;SDS011;8117;52.488;13.460;2023-01-30T16:12:46;0.10;;;0.10;;
16025;SDS011;8117;52.488;13.460;2023-01-30T16:15:15;0.10;;;0.10;;
16025;SDS011;8117;52.488;13.460;2023-01-30T16:17:44;0.50;;;0.50;;
16025;SDS011;8117;52.488;13.460;2023-01-30T16:20:14;3.87;;;0.40;;
16025;SDS011;8117;52.488;13.460;2023-01-30T16:22:43;0.43;;;0.43;;
16025;SDS011;8117;52.488;13.460;2023-01-30T16:25:15;0.00;;;0.00;;
16025;SDS011;8117;52.488;13.460;2023-01-30T16:27:47;0.00;;;0.00;;
16025;SDS011;8117;52.488;13.460;2023-01-30T16:30:20;0.00;;;0.00;;
16025;SDS011;8117;52.488;13.460;2023-01-30T16:32:49;0.00;;;0.00;;
16025;SDS011;8117;52.488;13.460;2023-01-30T16:35:25;0.10;;;0.10;;
16025;SDS011;8117;52.488;13.460;2023-01-30T16:37:55;0.20;;;0.20;;
16025;SDS011;8117;52.488;13.460;2023-01-30T16:40:25;1.87;;;1.07;;
16025;SDS011;8117;52.488;13.460;2023-01-30T16:42:53;0.10;;;0.10;;
16025;SDS011;8117;52.488;13.460;2023-01-30T16:48:27;0.00;;;0.00;;
16025;SDS011;8117;52.488;13.460;2023-01-30T16:51:07;0.10;;;0.10;;
16025;SDS011;8117;52.488;13.460;2023-01-30T16:53:38;0.00;;;0.00;;
16025;SDS011;8117;52.488;13.460;2023-01-30T16:56:14;0.43;;;0.43;;
16025;SDS011;8117;52.488;13.460;2023-01-30T16:58:44;0.30;;;0.30;;
16025;SDS011;8117;52.488;13.460;2023-01-30T17:01:15;0.00;;;0.00;;
16025;SDS011;8117;52.488;13.460;2023-01-30T17:03:42;0.73;;;0.73;;
16025;SDS011;8117;52.488;13.460;2023-01-30T17:06:23;0.00;;;0.00;;
16025;SDS011;8117;52.488;13.460;2023-01-30T17:08:52;4.53;;;0.97;;
16025;SDS011;8117;52.488;13.460;2023-01-30T17:11:34;0.10;;;0.10;;
16025;SDS011;8117;52.488;13.460;2023-01-30T17:14:18;0.93;;;0.93;;
16025;SDS011;8117;52.488;13.460;2023-01-30T17:16:46;0.30;;;0.30;;
16025;SDS011;8117;52.488;13.460;2023-01-30T17:19:13;0.23;;;0.23;;
16025;SDS011;8117;52.488;13.460;2023-01-30T17:21:44;0.00;;;0.00;;
16025;SDS011;8117;52.488;13.460;2023-01-30T17:24:19;0.20;;;0.20;;
16025;SDS011;8117;52.488;13.460;2023-01-30T17:26:48;0.20;;;0.20;;
16025;SDS011;8117;52.488;13.460;2023-01-30T17:29:17;0.53;;;0.43;;
16025;SDS011;8117;52.488;13.460;2023-01-30T17:31:46;0.17;;;0.17;;
16025;SDS011;8117;52.488;13.460;2023-01-30T17:34:14;0.50;;;0.40;;
16025;SDS011;8117;52.488;13.460;2023-01-30T17:36:40;0.37;;;0.37;;
16025;SDS011;8117;52.488;13.460;2023-01-30T17:39:10;0.13;;;0.13;;
16025;SDS011;8117;52.488;13.460;2023-01-30T17:41:37;0.10;;;0.10;;
16025;SDS011;8117;52.488;13.460;2023-01-30T17:44:06;0.10;;;0.10;;
16025;SDS011;8117;52.488;13.460;2023-01-30T17:46:34;0.00;;;0.00;;
16025;SDS011;8117;52.488;13.460;2023-01-30T17:49:02;1.13;;;1.13;;
16025;SDS011;8117;52.488;13.460;2023-01-30T17:51:29;0.10;;;0.10;;
16025;SDS011;8117;52.488;13.460;2023-01-30T17:53:56;0.40;;;0.33;;
16025;SDS011;8117;52.488;13.460;2023-01-30T17:56:25;0.30;;;0.30;;
16025;SDS011;8117;52.488;13.460;2023-01-30T17:58:54;1.27;;;1.17;;
16025;SDS011;8117;52.488;13.460;2023-01-30T18:01:23;0.10;;;0.10;;
16025;SDS011;8117;52.488;13.460;2023-01-30T18:03:49;1.13;;;1.13;;